Current Conditions

Updated: 21-Aug-2017 01:02 AM  
Summary / Temperature Wind Rain






Feels like: 74°F

1-hour difference
1.8°F 1.8°F colder than last hour.

24-hour difference
2.3°F2.3°F colder than yesterday at this time.

  Today Yesterday
High: 75.5°F
12:00 AM
96.6°F
2:53 PM
Low: 73.6°F
12:53 AM
68.8°F
6:40 AM
Calm SE
0.0
Gust:  0.0 mph
0 Beaufort - Calm

Today: 1.2 - 12:27 AM
Month: 10.0 mph - Aug 13
Rain Today: 0.00 in
Current Rate (/hr): 0.000 in
Max Rate (/hr):
Rain Yesterday: 0.00 in
Storm Rain: 0.00 in
This Month: 0.00 in
Season Total: 0.00 in
Last Rain Event: 51 days ago
Humidity / Barometer Sun / Moon
Humidity: 78 Increased 4.0% in the last hour.
Dew Point: 66.3°F Decreased 0.3°F in the last hour.
Barometer: 29.802 inHg  
Baro Trend: Steady
Sunrise: 6:19 AM
Sunset: 7:40 PM
Moonrise: 6:07 AM
Moonset: 7:02 PM
Sky Conditions UV Index
Summary: Clear
Visibility: 10 miles
Clouds: None
KVIS - 12:56 AM PDT
Current: 0.0  None 
Monday: 9.0  Very High 
Tuesday: 9.0  Very High 
Air Quality Fire Danger
 Moderate 
Ozone 48 ppb
PM 2.5 24 μg/m3
1:00 AM PDT
Current: 2  Low 

Local Alerts Local Forecast
Local NWS Alerts
Today

Mostly
Sunny
High 95
Tonight

Mostly
Clear
Low 66
Tue

Mostly
Sunny
High 93
Tue night

Mostly
Clear
Low 66
Wed

Sunny

High 93
Wed night

Clear

Low 66
Thu

Sunny

High 95

Local Radar Local Satellite Neighborhood Cam Sky Cam
Local Radar Local Satellite Neighborhood Cam Sky Cam


Nearby Personal Stations

Weather Underground PWS KCAEXETE7     Weather Underground PWS KCAEXETE6     Weather Underground PWS KCAEXETE11

Nearby Airport Stations

KVIS - Visalia, California, USA
Distance from station: W 14mi, 23km
Updated: Mon, 21-Aug-2017 12:56am PDT
Clear
Clear
 Wind from NW
Wind: NW 7 mph , 11 km/h
Temperature: 75°F , 24°C
Dew Point: 64°F , 18°C
Humidity: 69%
Barometer: 29.85 inHg , 1010.8 hPa
Clouds: Clear
Visibility: 10 miles , 16 km
2017/08/21 07:56 KVIS 210756Z AUTO 31006KT 10SM CLR 24/18 A2985 RMK AO2 SLP111 T02440178 403500194
KPTV - Porterville, California, USA
Distance from station: SSE 19mi, 31km
Updated: Mon, 21-Aug-2017 12:56am PDT

 Wind from S
Wind: S 5 mph , 7 km/h
Temperature: 73°F , 23°C
Dew Point: 54°F , 12°C
Humidity: 50%
Barometer: 29.87 inHg , 1011.5 hPa
Visibility: 10 miles , 16 km
2017/08/21 07:56 KPTV 210756Z AUTO 17004KT 10SM 23/12 A2987 RMK AO2 SLP118 T02330122 $

Metar display script from Saratoga-Weather.org



Visitor Map